San Francisco, California
Current Conditions -  °F | °C
As of 5:56 AM on Saturday 25 Oct 2014 (Local Time) from KSFO Reporting Station
Light Rain Light Rain  
Wind Chill: 64°   Ceiling: 2200
Heat Index: 64°   Visibility: 4mi
Dew Point: 60°   Wind: 14mph
Humidity: 87%   Direction: 240°WSW
Pressure: 29.94"   Gusts: 24mph
Location:  37.78°N, 122.42°W
Report Text: KSFO 251256Z 24012G21KT 4SM -RA BR SCT017 BKN022 OVC035 18/16 A2994 RMK AO2 SLP140 P0008 T01780156 $
Loading
Personal Weather Stations






























Interactive Weather Map
Tropical Storm Tracking
New forecast layout! Learn more

10-Day Weather Forecast

Advertisements
Track Severe Weather on mobile